createdAt,value
2022-08-10T00:00:17.600Z,101254.09
2022-08-10T00:00:53.530Z,101242.06
2022-08-10T00:01:27.359Z,101235.78
2022-08-10T00:02:08.608Z,101249.00
2022-08-10T00:02:42.672Z,101237.25
2022-08-10T00:03:16.497Z,101248.44
2022-08-10T00:03:57.590Z,101242.31
2022-08-10T00:04:31.653Z,101234.03
2022-08-10T00:05:06.961Z,101255.09
2022-08-10T00:05:52.739Z,101231.53
2022-08-10T00:06:27.654Z,101252.16
2022-08-10T00:07:01.296Z,101242.19
2022-08-10T00:07:41.586Z,101241.78
2022-08-10T00:08:24.038Z,101255.09
2022-08-10T00:08:58.432Z,101239.13
2022-08-10T00:09:51.057Z,101251.63
2022-08-10T00:10:28.704Z,101248.44
2022-08-10T00:11:15.449Z,101244.44
2022-08-10T00:11:56.667Z,101246.41
2022-08-10T00:12:54.289Z,101252.41
2022-08-10T00:13:34.665Z,101249.84
2022-08-10T00:14:14.568Z,101244.31
2022-08-10T00:14:54.730Z,101244.72
2022-08-10T00:15:52.746Z,101249.03
2022-08-10T00:16:35.631Z,101223.25
2022-08-10T00:17:09.685Z,101237.13
2022-08-10T00:17:43.359Z,101232.66
2022-08-10T00:18:34.602Z,101249.00
2022-08-10T00:19:09.729Z,101246.09
2022-08-10T00:20:03.885Z,101250.41
2022-08-10T00:20:45.573Z,101238.44
2022-08-10T00:21:19.668Z,101243.91
2022-08-10T00:21:59.622Z,101241.16
2022-08-10T00:22:52.941Z,101252.50
2022-08-10T00:23:39.589Z,101245.56
2022-08-10T00:24:20.639Z,101247.94
2022-08-10T00:25:03.570Z,101248.50
2022-08-10T00:25:43.665Z,101249.34
2022-08-10T00:26:24.585Z,101250.50
2022-08-10T00:27:55.598Z,101235.91
2022-08-10T00:28:05.301Z,101238.88
2022-08-10T00:28:52.590Z,101223.00
2022-08-10T00:29:26.307Z,101230.84
2022-08-10T00:30:13.573Z,101239.28
2022-08-10T00:30:47.291Z,101226.09
2022-08-10T00:31:58.736Z,101233.41
2022-08-10T00:32:35.763Z,101236.31
2022-08-10T00:33:15.697Z,101222.81
2022-08-10T00:33:55.561Z,101237.81
2022-08-10T00:34:38.650Z,101242.66
2022-08-10T00:35:18.589Z,101237.56
2022-08-10T00:35:58.628Z,101239.91
2022-08-10T00:36:39.570Z,101228.72
2022-08-10T00:37:21.645Z,101241.38
2022-08-10T00:38:01.591Z,101242.53
2022-08-10T00:38:42.325Z,101244.25
2022-08-10T00:39:22.597Z,101226.16
2022-08-10T00:40:02.680Z,101226.13
2022-08-10T00:40:42.562Z,101235.56
2022-08-10T00:41:22.654Z,101227.00
2022-08-10T00:42:07.362Z,101239.66
2022-08-10T00:42:48.654Z,101239.69
2022-08-10T00:43:28.564Z,101236.84
2022-08-10T00:44:09.622Z,101246.88
2022-08-10T00:44:52.554Z,101248.59
2022-08-10T00:45:32.621Z,101247.19
2022-08-10T00:46:12.555Z,101238.28
2022-08-10T00:46:52.666Z,101253.50
2022-08-10T00:47:36.808Z,101236.28
2022-08-10T00:48:17.684Z,101254.66
2022-08-10T00:49:00.186Z,101237.13
2022-08-10T00:49:40.642Z,101246.91
2022-08-10T00:50:20.555Z,101246.66
2022-08-10T00:51:00.615Z,101232.19
2022-08-10T00:51:48.305Z,101236.78
2022-08-10T00:52:30.662Z,101224.84
2022-08-10T00:53:10.533Z,101244.91
2022-08-10T00:53:50.633Z,101235.75
2022-08-10T00:54:30.594Z,101232.34
2022-08-10T00:55:12.653Z,101253.50
2022-08-10T00:56:34.955Z,101247.50
2022-08-10T00:57:15.929Z,101248.97
2022-08-10T00:57:56.565Z,101242.06
2022-08-10T00:58:36.614Z,101234.59
2022-08-10T00:59:21.552Z,101245.22
2022-08-10T01:00:02.605Z,101241.78
2022-08-10T01:00:36.622Z,101225.13
2022-08-10T01:01:22.606Z,101234.59
2022-08-10T01:02:11.924Z,101240.78
2022-08-10T01:02:45.651Z,101228.75
2022-08-10T01:04:40.236Z,101238.22
2022-08-10T01:04:40.327Z,101233.44
2022-08-10T01:05:25.554Z,101221.97
2022-08-10T01:06:24.020Z,101235.75
2022-08-10T01:07:35.569Z,101216.50
2022-08-10T01:08:15.257Z,101210.50
2022-08-10T01:09:16.538Z,101222.94
2022-08-10T01:10:18.562Z,101235.16
2022-08-10T01:12:37.109Z,101222.56
2022-08-10T01:12:39.701Z,101229.44
2022-08-10T01:13:44.778Z,101219.13
2022-08-10T01:14:48.535Z,101236.34
2022-08-10T01:15:42.638Z,101221.25
2022-08-10T01:17:15.570Z,101226.22
2022-08-10T01:18:09.659Z,101221.69
2022-08-10T01:19:32.513Z,101230.69
2022-08-10T01:20:44.589Z,101223.56
2022-08-10T01:22:04.555Z,101215.50
2022-08-10T01:23:19.593Z,101223.69
2022-08-10T01:24:10.573Z,101225.94
2022-08-10T01:25:04.471Z,101221.63
2022-08-10T01:26:30.292Z,101224.50
2022-08-10T01:27:27.047Z,101230.97
2022-08-10T01:28:44.624Z,101228.59
2022-08-10T01:30:19.966Z,101215.09
2022-08-10T01:31:02.542Z,101225.28
2022-08-10T01:31:50.591Z,101223.06
2022-08-10T01:32:46.514Z,101224.59
2022-08-10T01:34:01.889Z,101225.19
2022-08-10T01:35:18.556Z,101226.91
2022-08-10T01:36:32.194Z,101208.56
2022-08-10T01:37:18.516Z,101213.31
2022-08-10T01:38:23.611Z,101225.72
2022-08-10T01:39:05.537Z,101211.91
2022-08-10T01:39:53.763Z,101228.25
2022-08-10T01:40:35.548Z,101213.97
2022-08-10T01:41:46.183Z,101216.09
2022-08-10T01:42:28.538Z,101219.13
2022-08-10T01:43:12.566Z,101219.72
2022-08-10T01:44:30.518Z,101231.22
2022-08-10T01:45:12.557Z,101233.22
2022-08-10T01:45:58.567Z,101230.06
2022-08-10T01:46:40.597Z,101233.66
2022-08-10T01:47:42.505Z,101233.13
2022-08-10T01:48:40.593Z,101239.31
2022-08-10T01:49:22.498Z,101237.88
2022-08-10T01:50:24.606Z,101239.91
2022-08-10T01:51:43.526Z,101242.75
2022-08-10T01:52:28.466Z,101230.97
2022-08-10T01:53:16.497Z,101221.50
2022-08-10T01:54:02.575Z,101247.63
2022-08-10T01:54:42.490Z,101238.16
2022-08-10T01:55:23.572Z,101216.63
2022-08-10T01:56:04.496Z,101246.75
2022-08-10T01:56:56.512Z,101244.03
2022-08-10T01:57:32.308Z,101233.25
2022-08-10T01:58:21.471Z,101245.59
2022-08-10T01:59:03.018Z,101234.69
2022-08-10T01:59:57.585Z,101243.84
2022-08-10T02:00:39.678Z,101235.25
2022-08-10T02:01:31.590Z,101245.00
2022-08-10T02:02:18.520Z,101238.44
2022-08-10T02:02:59.557Z,101234.66
2022-08-10T02:04:03.091Z,101226.19
2022-08-10T02:04:47.560Z,101237.84
2022-08-10T02:05:29.517Z,101241.59
2022-08-10T02:06:10.576Z,101227.81
2022-08-10T02:07:00.490Z,101238.44
2022-08-10T02:07:42.524Z,101230.56
2022-08-10T02:08:38.478Z,101230.69
2022-08-10T02:09:39.475Z,101228.97
2022-08-10T02:10:34.472Z,101239.16
2022-08-10T02:11:29.480Z,101231.53
2022-08-10T02:12:45.521Z,101238.84
2022-08-10T02:13:40.510Z,101232.69
2022-08-10T02:14:35.478Z,101236.69
2022-08-10T02:15:33.477Z,101230.13
2022-08-10T02:16:28.496Z,101230.97
2022-08-10T02:17:59.747Z,101233.56
2022-08-10T02:18:29.511Z,101224.38
2022-08-10T02:19:10.564Z,101213.47
2022-08-10T02:19:54.504Z,101226.81
2022-08-10T02:20:42.602Z,101234.13
2022-08-10T02:21:23.473Z,101232.69
2022-08-10T02:22:35.956Z,101227.09
2022-08-10T02:23:30.475Z,101223.81
2022-08-10T02:24:13.771Z,101218.63
2022-08-10T02:24:54.489Z,101228.53
2022-08-10T02:25:41.673Z,101229.53
2022-08-10T02:26:24.472Z,101225.53
2022-08-10T02:27:05.828Z,101231.25
2022-08-10T02:27:47.489Z,101223.06
2022-08-10T02:28:37.504Z,101230.97
2022-08-10T02:29:32.477Z,101234.41
2022-08-10T02:30:26.465Z,101232.28
2022-08-10T02:31:25.532Z,101234.13
2022-08-10T02:32:36.021Z,101219.78
2022-08-10T02:33:37.060Z,101229.69
2022-08-10T02:34:20.557Z,101226.94
2022-08-10T02:35:02.535Z,101239.00
2022-08-10T02:35:54.984Z,101237.69
2022-08-10T02:36:39.533Z,101232.69
2022-08-10T02:37:20.453Z,101221.63
2022-08-10T02:38:08.591Z,101236.97
2022-08-10T02:38:58.712Z,101233.81
2022-08-10T02:39:42.558Z,101238.41
2022-08-10T02:42:17.990Z,101222.63
2022-08-10T02:45:12.323Z,101242.84
2022-08-10T02:45:22.067Z,101243.00
2022-08-10T02:45:27.647Z,101245.44
2022-08-10T02:45:39.858Z,101230.22
2022-08-10T02:46:42.458Z,101239.00
2022-08-10T02:47:51.623Z,101241.41
2022-08-10T02:49:00.440Z,101236.97
2022-08-10T02:50:03.450Z,101242.72
2022-08-10T02:51:04.497Z,101240.44
2022-08-10T02:52:06.997Z,101238.81
2022-08-10T02:53:55.071Z,101251.00
2022-08-10T02:54:46.456Z,101235.69
2022-08-10T02:56:02.476Z,101239.84
2022-08-10T02:56:48.429Z,101220.91
2022-08-10T02:57:37.613Z,101247.00
2022-08-10T02:58:47.460Z,101225.78
2022-08-10T02:59:39.880Z,101232.97
2022-08-10T03:00:21.437Z,101234.66
2022-08-10T03:01:10.547Z,101247.44
2022-08-10T03:02:09.445Z,101238.13
2022-08-10T03:03:03.433Z,101233.53
2022-08-10T03:04:05.449Z,101231.81
2022-08-10T03:05:02.453Z,101239.81
2022-08-10T03:05:57.441Z,101236.13
2022-08-10T03:06:43.780Z,101235.09
2022-08-10T03:07:43.988Z,101231.38
2022-08-10T03:08:31.432Z,101238.69
2022-08-10T03:09:15.494Z,101234.09
2022-08-10T03:09:57.448Z,101239.53
2022-08-10T03:10:43.529Z,101235.34
2022-08-10T03:12:35.595Z,101245.25
2022-08-10T03:12:37.935Z,101238.66
2022-08-10T03:13:16.489Z,101234.94
2022-08-10T03:14:05.431Z,101248.41
2022-08-10T03:14:42.489Z,101244.41
2022-08-10T03:15:31.457Z,101237.06
2022-08-10T03:16:07.504Z,101248.13
2022-08-10T03:16:55.425Z,101250.28
2022-08-10T03:17:30.530Z,101253.84
2022-08-10T03:18:12.531Z,101244.09
2022-08-10T03:18:54.502Z,101250.09
2022-08-10T03:20:35.233Z,101228.28
2022-08-10T03:20:43.877Z,101242.63
2022-08-10T03:21:25.422Z,101233.91
2022-08-10T03:22:06.488Z,101249.81
2022-08-10T03:22:48.621Z,101249.19
2022-08-10T03:23:31.483Z,101249.25
2022-08-10T03:24:18.258Z,101261.44
2022-08-10T03:25:16.422Z,101240.53
2022-08-10T03:25:53.481Z,101246.41
2022-08-10T03:26:43.463Z,101244.81
2022-08-10T03:27:19.484Z,101249.41
2022-08-10T03:28:07.404Z,101254.91
2022-08-10T03:28:50.467Z,101245.47
2022-08-10T03:30:29.374Z,101244.91
2022-08-10T03:30:59.448Z,101252.53
2022-08-10T03:31:53.435Z,101237.75
2022-08-10T03:32:47.422Z,101247.25
2022-08-10T03:33:47.414Z,101242.63
2022-08-10T03:34:33.406Z,101230.44
2022-08-10T03:35:15.520Z,101245.69
2022-08-10T03:36:42.309Z,101250.13
2022-08-10T03:36:58.490Z,101243.56
2022-08-10T03:37:38.413Z,101242.13
2022-08-10T03:38:18.502Z,101254.19
2022-08-10T03:38:59.424Z,101238.09
2022-08-10T03:39:46.498Z,101254.28
2022-08-10T03:40:45.443Z,101246.69
2022-08-10T03:42:02.401Z,101254.81
2022-08-10T03:42:57.415Z,101253.28
2022-08-10T03:43:51.413Z,101261.31
2022-08-10T03:44:50.528Z,101249.97
2022-08-10T03:45:54.327Z,101256.72
2022-08-10T03:46:53.406Z,101239.09
2022-08-10T03:47:50.389Z,101261.28
2022-08-10T03:48:48.929Z,101252.53
2022-08-10T03:49:45.424Z,101257.00
2022-08-10T03:50:45.480Z,101255.53
2022-08-10T03:51:27.513Z,101267.88
2022-08-10T03:52:08.392Z,101264.16
2022-08-10T03:53:03.427Z,101264.91
2022-08-10T03:54:03.335Z,101268.22
2022-08-10T03:55:00.404Z,101250.44
2022-08-10T03:56:28.845Z,101259.94
2022-08-10T03:57:08.395Z,101265.06
2022-08-10T03:58:03.427Z,101269.84
2022-08-10T03:58:57.400Z,101256.53
2022-08-10T03:59:51.406Z,101267.59
2022-08-10T04:00:33.454Z,101264.97
2022-08-10T04:01:14.526Z,101253.81
2022-08-10T04:02:52.006Z,101268.75
2022-08-10T04:02:58.913Z,101243.22
2022-08-10T04:03:40.389Z,101255.00
2022-08-10T04:04:24.553Z,101266.47
2022-08-10T04:05:05.390Z,101255.59
2022-08-10T04:05:52.405Z,101249.16
2022-08-10T04:06:46.389Z,101245.31
2022-08-10T04:07:45.372Z,101260.78
2022-08-10T04:08:39.390Z,101245.75
2022-08-10T04:09:53.920Z,101251.91
2022-08-10T04:10:47.397Z,101252.19
2022-08-10T04:11:27.396Z,101263.09
2022-08-10T04:12:08.458Z,101255.78
2022-08-10T04:12:49.373Z,101251.47
2022-08-10T04:13:31.438Z,101243.84
2022-08-10T04:14:37.901Z,101257.91
2022-08-10T04:15:13.440Z,101261.06
2022-08-10T04:15:53.380Z,101263.06
2022-08-10T04:16:40.398Z,101221.75
2022-08-10T04:17:59.394Z,101258.91
2022-08-10T04:18:51.380Z,101247.75
2022-08-10T04:19:56.360Z,101260.06
2022-08-10T04:21:03.362Z,101249.03
2022-08-10T04:22:08.404Z,101259.06
2022-08-10T04:23:06.410Z,101260.78
2022-08-10T04:24:02.361Z,101250.44
2022-08-10T04:24:57.380Z,101267.97
2022-08-10T04:25:53.352Z,101264.69
2022-08-10T04:26:47.379Z,101251.31
2022-08-10T04:27:28.366Z,101264.53
2022-08-10T04:28:08.737Z,101269.44
2022-08-10T04:28:49.369Z,101253.06
2022-08-10T04:29:29.435Z,101253.06
2022-08-10T04:30:10.362Z,101261.38
2022-08-10T04:30:52.443Z,101259.94
2022-08-10T04:31:33.350Z,101256.34
2022-08-10T04:32:15.513Z,101255.06
2022-08-10T04:32:59.368Z,101251.75
2022-08-10T04:33:40.417Z,101271.69
2022-08-10T04:34:21.337Z,101268.25
2022-08-10T04:35:02.414Z,101269.84
2022-08-10T04:35:44.364Z,101253.22
2022-08-10T04:36:25.432Z,101249.19
2022-08-10T04:37:10.358Z,101256.78
2022-08-10T04:37:51.459Z,101254.34
2022-08-10T04:38:32.427Z,101263.97
2022-08-10T04:39:13.569Z,101252.50
2022-08-10T04:39:54.333Z,101271.00
2022-08-10T04:40:36.409Z,101267.09
2022-08-10T04:41:17.343Z,101265.69
2022-08-10T04:41:57.416Z,101273.16
2022-08-10T04:42:38.356Z,101270.59
2022-08-10T04:43:18.416Z,101264.53
2022-08-10T04:43:59.369Z,101260.81
2022-08-10T04:44:40.424Z,101272.34
2022-08-10T04:45:21.336Z,101275.63
2022-08-10T04:46:42.771Z,101264.81
2022-08-10T04:48:00.376Z,101260.66
2022-08-10T04:48:40.982Z,101260.09
2022-08-10T04:49:54.587Z,101274.28
2022-08-10T04:50:25.414Z,101277.16
2022-08-10T04:51:07.442Z,101270.69
2022-08-10T04:51:47.413Z,101278.34
2022-08-10T04:52:28.328Z,101280.34
2022-08-10T04:53:09.391Z,101282.38
2022-08-10T04:54:04.481Z,101284.09
2022-08-10T04:54:47.366Z,101278.88
2022-08-10T04:55:21.418Z,101276.03
2022-08-10T04:56:08.338Z,101274.19
2022-08-10T04:56:45.420Z,101278.03
2022-08-10T04:57:33.326Z,101268.84
2022-08-10T04:58:07.426Z,101280.59
2022-08-10T04:58:55.338Z,101282.78
2022-08-10T04:59:29.425Z,101278.78
2022-08-10T05:00:19.086Z,101278.50
2022-08-10T05:00:59.466Z,101274.75
2022-08-10T05:02:28.810Z,101271.44
2022-08-10T05:02:41.534Z,101272.03
2022-08-10T05:03:22.329Z,101277.47
2022-08-10T05:04:34.906Z,101283.50
2022-08-10T05:05:02.320Z,101280.91
2022-08-10T05:05:42.358Z,101281.34
2022-08-10T05:06:16.389Z,101272.31
2022-08-10T05:07:03.305Z,101271.41
2022-08-10T05:07:51.413Z,101286.59
2022-08-10T05:08:41.320Z,101288.63
2022-08-10T05:09:15.433Z,101284.03
2022-08-10T05:10:06.572Z,101281.75
2022-08-10T05:10:49.352Z,101294.69
2022-08-10T05:11:43.322Z,101285.75
2022-08-10T05:12:38.250Z,101277.88
2022-08-10T05:13:32.314Z,101297.78
2022-08-10T05:14:26.365Z,101280.53
2022-08-10T05:15:25.358Z,101290.00
2022-08-10T05:16:12.353Z,101285.66
2022-08-10T05:17:05.428Z,101285.38
2022-08-10T05:18:04.556Z,101291.25
2022-08-10T05:18:43.413Z,101295.16
2022-08-10T05:20:01.814Z,101286.66
2022-08-10T05:20:24.402Z,101296.84
2022-08-10T05:21:11.331Z,101297.59
2022-08-10T05:22:12.317Z,101303.75
2022-08-10T05:23:06.314Z,101298.56
2022-08-10T05:24:00.301Z,101292.13
2022-08-10T05:24:54.301Z,101283.63
2022-08-10T05:25:48.308Z,101284.94
2022-08-10T05:26:37.969Z,101301.44
2022-08-10T05:27:29.380Z,101291.97
2022-08-10T05:28:16.321Z,101296.13
2022-08-10T05:28:50.566Z,101292.22
2022-08-10T05:29:37.313Z,101283.03
2022-08-10T05:30:13.698Z,101297.66
2022-08-10T05:31:00.312Z,101283.44
2022-08-10T05:31:34.390Z,101289.88
2022-08-10T05:32:14.325Z,101286.16
2022-08-10T05:33:00.000Z,101285.72
2022-08-10T05:33:41.303Z,101298.59
2022-08-10T05:34:26.551Z,101298.50
2022-08-10T05:35:06.316Z,101293.66
2022-08-10T05:35:56.734Z,101290.19
2022-08-10T05:36:40.293Z,101291.59
2022-08-10T05:38:13.347Z,101278.38
2022-08-10T05:38:42.294Z,101288.53
2022-08-10T05:39:36.358Z,101289.56
2022-08-10T05:40:31.349Z,101282.78
2022-08-10T05:41:25.305Z,101281.53
2022-08-10T05:42:19.302Z,101285.53
2022-08-10T05:43:00.395Z,101287.22
2022-08-10T05:43:40.382Z,101287.06
2022-08-10T05:44:21.301Z,101282.34
2022-08-10T05:45:01.449Z,101277.50
2022-08-10T05:46:17.005Z,101279.91
2022-08-10T05:46:42.366Z,101278.59
2022-08-10T05:47:23.293Z,101273.97
2022-08-10T05:48:41.956Z,101286.56
2022-08-10T05:49:24.314Z,101285.06
2022-08-10T05:50:19.290Z,101276.88
2022-08-10T05:51:13.302Z,101265.09
2022-08-10T05:52:07.276Z,101286.56
2022-08-10T05:53:39.124Z,101285.16
2022-08-10T05:54:06.754Z,101284.59
2022-08-10T05:54:47.368Z,101286.56
2022-08-10T05:55:30.285Z,101286.13
2022-08-10T05:56:12.358Z,101288.53
2022-08-10T05:56:58.090Z,101293.38
2022-08-10T05:57:39.429Z,101277.38
2022-08-10T05:58:19.260Z,101287.47
2022-08-10T05:58:59.356Z,101284.94
2022-08-10T06:00:32.955Z,101289.91
2022-08-10T06:00:49.896Z,101291.63
2022-08-10T06:01:32.323Z,101286.84
2022-08-10T06:02:32.488Z,101297.00
2022-08-10T06:03:15.294Z,101291.78
2022-08-10T06:04:01.354Z,101293.94
2022-08-10T06:04:47.288Z,101286.06
2022-08-10T06:05:35.417Z,101301.00
2022-08-10T06:06:18.975Z,101296.25
2022-08-10T06:07:04.395Z,101306.16
2022-08-10T06:07:53.329Z,101298.38
2022-08-10T06:08:38.426Z,101304.31
2022-08-10T06:09:19.273Z,101286.03
2022-08-10T06:10:10.161Z,101304.09
2022-08-10T06:12:24.074Z,101296.81
2022-08-10T06:12:29.239Z,101307.69
2022-08-10T06:13:59.789Z,101300.88
2022-08-10T06:15:10.439Z,101298.38
2022-08-10T06:16:24.259Z,101301.16
2022-08-10T06:17:19.271Z,101300.56
2022-08-10T06:18:13.252Z,101309.00
2022-08-10T06:19:08.264Z,101302.53
2022-08-10T06:20:03.277Z,101299.91
2022-08-10T06:20:43.297Z,101288.84
2022-08-10T06:21:24.341Z,101295.00
2022-08-10T06:22:04.269Z,101300.16
2022-08-10T06:22:44.336Z,101291.41
2022-08-10T06:23:25.305Z,101296.78
2022-08-10T06:24:11.014Z,101300.22
2022-08-10T06:25:26.991Z,101291.00
2022-08-10T06:26:11.670Z,101288.81
2022-08-10T06:27:07.255Z,101301.75
2022-08-10T06:28:02.289Z,101291.13
2022-08-10T06:29:06.299Z,101303.13
2022-08-10T06:30:36.285Z,101303.78
2022-08-10T06:31:24.353Z,101305.28
2022-08-10T06:32:01.569Z,101311.69
2022-08-10T06:32:52.337Z,101305.81
2022-08-10T06:33:31.636Z,101301.03
2022-08-10T06:34:20.298Z,101317.63
2022-08-10T06:34:56.441Z,101296.38
2022-08-10T06:35:44.289Z,101304.31
2022-08-10T06:36:19.364Z,101308.94
2022-08-10T06:37:03.579Z,101313.78
2022-08-10T06:37:50.647Z,101310.34
2022-08-10T06:38:35.250Z,101311.44
2022-08-10T06:39:34.123Z,101290.94
2022-08-10T06:40:15.353Z,101316.59
2022-08-10T06:40:57.387Z,101317.69
2022-08-10T06:42:14.376Z,101315.25
2022-08-10T06:42:47.293Z,101317.72
2022-08-10T06:43:24.349Z,101311.84
2022-08-10T06:44:18.317Z,101313.28
2022-08-10T06:45:13.638Z,101310.47
2022-08-10T06:46:08.806Z,101312.72
2022-08-10T06:46:48.408Z,101314.94
2022-08-10T06:47:53.350Z,101312.28
2022-08-10T06:49:00.368Z,101316.78
2022-08-10T06:49:47.266Z,101317.47
2022-08-10T06:50:56.255Z,101317.00
2022-08-10T06:51:57.328Z,101310.66
2022-08-10T06:52:32.562Z,101310.78
2022-08-10T06:53:23.349Z,101301.56
2022-08-10T06:54:08.410Z,101310.34
2022-08-10T06:54:50.268Z,101300.66
2022-08-10T06:55:40.202Z,101307.09
2022-08-10T06:56:35.871Z,101300.63
2022-08-10T06:57:21.327Z,101304.22
2022-08-10T06:58:02.274Z,101302.50
2022-08-10T06:59:04.316Z,101298.06
2022-08-10T06:59:51.352Z,101313.50
2022-08-10T07:00:45.286Z,101307.69
2022-08-10T07:01:22.625Z,101300.34
2022-08-10T07:02:16.624Z,101311.13
2022-08-10T07:03:07.209Z,101308.06
2022-08-10T07:03:59.245Z,101312.91
2022-08-10T07:05:07.287Z,101304.69
2022-08-10T07:05:46.827Z,101314.44
2022-08-10T07:06:23.661Z,101310.00
2022-08-10T07:07:05.258Z,101307.78
2022-08-10T07:07:46.317Z,101311.41
2022-08-10T07:08:21.999Z,101292.19
2022-08-10T07:09:03.256Z,101301.47
2022-08-10T07:09:43.453Z,101307.13
2022-08-10T07:10:45.590Z,101293.25
2022-08-10T07:11:28.358Z,101299.63
2022-08-10T07:12:09.605Z,101302.53
2022-08-10T07:12:51.416Z,101301.00
2022-08-10T07:14:16.367Z,101305.81
2022-08-10T07:14:34.589Z,101295.34
2022-08-10T07:15:16.238Z,101302.03
2022-08-10T07:15:59.974Z,101300.34
2022-08-10T07:16:40.545Z,101300.81
2022-08-10T07:17:22.133Z,101289.03
2022-08-10T07:18:04.252Z,101302.06
2022-08-10T07:18:38.348Z,101294.50
2022-08-10T07:19:16.972Z,101296.91
2022-08-10T07:20:02.267Z,101304.09
2022-08-10T07:20:40.749Z,101301.38
2022-08-10T07:21:22.269Z,101305.16
2022-08-10T07:22:03.343Z,101289.03
2022-08-10T07:23:04.840Z,101294.34
2022-08-10T07:23:58.619Z,101306.00
2022-08-10T07:24:42.344Z,101294.69
2022-08-10T07:25:27.358Z,101297.06
2022-08-10T07:26:08.327Z,101302.94
2022-08-10T07:26:57.282Z,101303.78
2022-08-10T07:27:39.227Z,101303.13
2022-08-10T07:28:26.613Z,101300.56
2022-08-10T07:29:07.280Z,101301.78
2022-08-10T07:30:01.307Z,101288.91
2022-08-10T07:30:40.265Z,101297.78
2022-08-10T07:31:54.826Z,101289.06
2022-08-10T07:32:25.322Z,101302.09
2022-08-10T07:33:01.643Z,101289.75
2022-08-10T07:33:52.899Z,101302.75
2022-08-10T07:34:30.786Z,101293.50
2022-08-10T07:35:19.233Z,101301.38
2022-08-10T07:35:54.654Z,101305.84
2022-08-10T07:36:43.181Z,101298.81
2022-08-10T07:37:17.717Z,101305.16
2022-08-10T07:38:00.294Z,101309.28
2022-08-10T07:38:38.484Z,101299.16
2022-08-10T07:39:13.064Z,101301.03
2022-08-10T07:40:02.645Z,101310.28
2022-08-10T07:40:38.351Z,101308.91
2022-08-10T07:41:12.817Z,101301.16
2022-08-10T07:42:16.337Z,101298.09
2022-08-10T07:42:54.439Z,101306.47
2022-08-10T07:43:56.272Z,101291.72
2022-08-10T07:44:22.465Z,101305.09
2022-08-10T07:45:08.666Z,101301.66
2022-08-10T07:45:49.306Z,101289.66
2022-08-10T07:46:33.250Z,101299.09
2022-08-10T07:47:18.909Z,101291.03
2022-08-10T07:48:26.213Z,101293.41
2022-08-10T07:49:19.089Z,101297.84
2022-08-10T07:50:05.591Z,101299.91
2022-08-10T07:50:54.339Z,101299.59
2022-08-10T07:51:28.674Z,101301.50
2022-08-10T07:52:17.260Z,101287.38
2022-08-10T07:52:54.714Z,101305.72
2022-08-10T07:54:00.299Z,101291.69
2022-08-10T07:54:50.455Z,101295.22
2022-08-10T07:56:04.329Z,101306.03
2022-08-10T07:56:48.367Z,101300.53
2022-08-10T07:57:38.189Z,101304.31
2022-08-10T07:58:24.273Z,101307.34
2022-08-10T07:59:13.289Z,101301.69
2022-08-10T08:00:04.439Z,101300.34
2022-08-10T08:00:47.269Z,101305.31
2022-08-10T08:01:32.249Z,101310.09
2022-08-10T08:02:42.479Z,101294.03
2022-08-10T08:03:31.208Z,101305.69
2022-08-10T08:04:13.365Z,101309.09
2022-08-10T08:04:54.194Z,101303.22
2022-08-10T08:05:58.389Z,101297.41
2022-08-10T08:06:24.132Z,101305.16
2022-08-10T08:07:31.244Z,101310.81
2022-08-10T08:08:07.722Z,101303.47
2022-08-10T08:08:58.229Z,101299.47
2022-08-10T08:09:32.525Z,101302.88
2022-08-10T08:10:22.200Z,101313.03
2022-08-10T08:11:05.213Z,101289.66
2022-08-10T08:11:53.300Z,101300.44
2022-08-10T08:12:37.016Z,101296.66
2022-08-10T08:13:19.263Z,101290.78
2022-08-10T08:14:01.195Z,101298.63
2022-08-10T08:14:42.495Z,101299.66
2022-08-10T08:16:20.295Z,101304.63
2022-08-10T08:16:32.261Z,101296.88
2022-08-10T08:17:06.303Z,101300.84
2022-08-10T08:17:43.054Z,101301.50
2022-08-10T08:18:25.493Z,101298.41
2022-08-10T08:19:27.800Z,101293.75
2022-08-10T08:19:58.591Z,101307.16
2022-08-10T08:20:39.167Z,101302.88
2022-08-10T08:24:06.197Z,101272.13
2022-08-10T08:24:07.376Z,101298.91
2022-08-10T08:24:08.453Z,101287.69
2022-08-10T08:24:33.561Z,101288.19
2022-08-10T08:25:15.256Z,101289.34
2022-08-10T08:25:56.176Z,101292.94
2022-08-10T08:26:39.567Z,101287.44
2022-08-10T08:27:26.202Z,101292.75
2022-08-10T08:28:08.791Z,101288.81
2022-08-10T08:28:52.227Z,101286.72
2022-08-10T08:29:33.292Z,101288.06
2022-08-10T08:30:15.185Z,101292.53
2022-08-10T08:31:12.245Z,101290.06
2022-08-10T08:31:54.520Z,101283.75
2022-08-10T08:32:53.278Z,101284.94
2022-08-10T08:33:42.059Z,101281.31
2022-08-10T08:34:33.204Z,101276.31
2022-08-10T08:35:10.526Z,101279.38
2022-08-10T08:35:58.137Z,101270.81
2022-08-10T08:36:35.002Z,101274.72
2022-08-10T08:38:29.470Z,101273.88
2022-08-10T08:38:30.540Z,101281.75
2022-08-10T08:39:16.480Z,101264.56
2022-08-10T08:39:57.177Z,101274.44
2022-08-10T08:40:44.141Z,101283.75
2022-08-10T08:41:56.354Z,101279.09
2022-08-10T08:43:00.293Z,101278.13
2022-08-10T08:43:49.186Z,101268.53
2022-08-10T08:45:31.650Z,101274.22
2022-08-10T08:46:58.876Z,101267.63
2022-08-10T08:48:11.255Z,101272.38
2022-08-10T08:50:05.141Z,101277.88
2022-08-10T08:50:45.711Z,101256.34
2022-08-10T08:52:18.400Z,101282.03
2022-08-10T08:54:01.077Z,101276.19
2022-08-10T08:54:53.187Z,101278.66
2022-08-10T08:56:04.654Z,101274.97
2022-08-10T08:57:46.367Z,101274.28
2022-08-10T08:58:36.366Z,101275.28
2022-08-10T09:00:03.157Z,101271.13
2022-08-10T09:01:10.276Z,101269.06
2022-08-10T09:02:11.206Z,101271.72
2022-08-10T09:03:31.306Z,101270.75
2022-08-10T09:04:36.155Z,101267.53
2022-08-10T09:06:09.149Z,101284.66
2022-08-10T09:08:00.281Z,101284.66
2022-08-10T09:09:03.159Z,101276.09
2022-08-10T09:10:16.144Z,101269.44
2022-08-10T09:11:47.185Z,101277.22
2022-08-10T09:13:21.133Z,101272.97
2022-08-10T09:14:49.121Z,101283.06
2022-08-10T09:16:08.147Z,101282.56
2022-08-10T09:17:27.199Z,101278.75
2022-08-10T09:18:50.120Z,101279.25
2022-08-10T09:20:11.139Z,101278.25
2022-08-10T09:21:15.141Z,101284.06
2022-08-10T09:22:21.128Z,101276.66
2022-08-10T09:24:01.511Z,101275.63
2022-08-10T09:25:30.180Z,101287.69
2022-08-10T09:26:30.118Z,101280.75
2022-08-10T09:27:19.281Z,101287.59
2022-08-10T09:28:11.146Z,101280.00
2022-08-10T09:28:57.731Z,101280.09
2022-08-10T09:30:04.147Z,101267.91
2022-08-10T09:31:22.427Z,101272.13
2022-08-10T09:36:14.793Z,101272.03
2022-08-10T09:36:21.006Z,101273.34
2022-08-10T09:36:24.972Z,101286.56
2022-08-10T09:36:32.620Z,101278.09
2022-08-10T09:37:24.167Z,101283.22
2022-08-10T09:39:06.141Z,101283.22
2022-08-10T09:40:56.786Z,101284.94
2022-08-10T09:41:21.281Z,101255.50